Time;durP1;ratioP1;P1;durP2;ratioP2;P2;SDS_P1;SDS_P2;PMS_P1;PMS_P2;Temp;Humidity;BMP_temperature;BMP_pressure;BME280_temperature;BME280_humidity;BME280_pressure;Samples;Min_cycle;Max_cycle;Signal;HPM_P1;HPM_P2
2023/10/27 00:01:04;;;;;;;78.38;35.55;;;;;;;;;;6204929;28;20084;-84
2023/10/27 00:04:07;;;;;;;87.38;36.55;;;;;;;;;;6204839;28;20385;-85
2023/10/27 00:07:09;;;;;;;81.38;35.67;;;;;;;;;;6203118;28;20058;-84
2023/10/27 00:10:11;;;;;;;81.57;36.33;;;;;;;;;;6205576;28;20330;-83
2023/10/27 00:13:13;;;;;;;84.22;36.33;;;;;;;;;;6205583;28;20050;-87
2023/10/27 00:16:14;;;;;;;79.72;36.90;;;;;;;;;;6210354;28;20058;-85
2023/10/27 00:19:18;;;;;;;96.63;38.13;;;;;;;;;;6203207;28;20342;-86
2023/10/27 00:22:19;;;;;;;88.87;37.30;;;;;;;;;;6202668;28;20054;-86
2023/10/27 00:25:21;;;;;;;86.15;36.63;;;;;;;;;;6201747;28;20054;-86
2023/10/27 00:28:23;;;;;;;82.50;35.72;;;;;;;;;;6206317;28;20165;-86
2023/10/27 00:31:25;;;;;;;93.85;38.17;;;;;;;;;;6205374;28;20064;-87
2023/10/27 00:34:28;;;;;;;89.05;37.35;;;;;;;;;;6207640;28;20066;-85
2023/10/27 00:37:30;;;;;;;95.87;36.10;;;;;;;;;;6206401;28;20062;-86
2023/10/27 00:40:34;;;;;;;90.43;37.78;;;;;;;;;;6211163;28;20056;-86
2023/10/27 00:43:36;;;;;;;88.07;36.30;;;;;;;;;;6207156;28;20042;-87
2023/10/27 00:46:39;;;;;;;90.30;36.63;;;;;;;;;;6203641;28;20050;-84
2023/10/27 00:49:42;;;;;;;85.13;36.17;;;;;;;;;;6210806;28;20058;-87
2023/10/27 00:52:44;;;;;;;88.65;35.50;;;;;;;;;;6199526;28;20058;-84
2023/10/27 00:55:46;;;;;;;87.03;35.30;;;;;;;;;;6199872;28;20057;-88
2023/10/27 00:58:48;;;;;;;79.20;35.60;;;;;;;;;;6206920;28;20060;-88
2023/10/27 01:01:49;;;;;;;82.85;35.97;;;;;;;;;;6203767;28;20273;-87
2023/10/27 01:04:53;;;;;;;82.20;36.08;;;;;;;;;;6203187;28;20054;-86
2023/10/27 01:07:55;;;;;;;77.65;34.78;;;;;;;;;;6205830;28;20168;-88
2023/10/27 01:10:56;;;;;;;85.32;35.60;;;;;;;;;;6203076;28;20058;-85
2023/10/27 01:13:58;;;;;;;88.88;36.83;;;;;;;;;;6203338;28;20061;-88
2023/10/27 01:17:00;;;;;;;84.53;37.22;;;;;;;;;;6202739;28;20068;-90
2023/10/27 01:20:04;;;;;;;80.68;35.25;;;;;;;;;;6200428;28;20069;-88
2023/10/27 01:23:07;;;;;;;85.20;35.78;;;;;;;;;;6207183;28;20100;-88
2023/10/27 01:26:08;;;;;;;82.20;34.63;;;;;;;;;;6207891;28;20053;-88
2023/10/27 01:29:10;;;;;;;84.10;35.35;;;;;;;;;;6205460;28;20081;-87
2023/10/27 01:32:12;;;;;;;78.57;34.17;;;;;;;;;;6197712;28;20064;-87
2023/10/27 01:35:14;;;;;;;83.03;33.90;;;;;;;;;;6206662;28;20061;-88
2023/10/27 01:38:18;;;;;;;77.72;32.95;;;;;;;;;;6208865;28;20077;-89
2023/10/27 01:41:20;;;;;;;71.68;32.20;;;;;;;;;;6206601;28;20042;-86
2023/10/27 01:44:21;;;;;;;73.30;31.20;;;;;;;;;;6199920;28;20068;-82
2023/10/27 01:47:23;;;;;;;78.22;32.85;;;;;;;;;;6206637;28;20054;-87
2023/10/27 01:50:25;;;;;;;70.18;30.08;;;;;;;;;;6200468;28;20493;-87
2023/10/27 01:53:28;;;;;;;67.00;30.27;;;;;;;;;;6201046;28;20364;-87
2023/10/27 01:56:33;;;;;;;61.17;28.30;;;;;;;;;;6203436;28;20057;-85
2023/10/27 01:59:34;;;;;;;57.20;27.13;;;;;;;;;;6203789;28;20878;-84
2023/10/27 02:02:36;;;;;;;54.60;25.23;;;;;;;;;;6199567;28;20050;-85
2023/10/27 02:05:43;;;;;;;53.15;25.63;;;;;;;;;;6204518;28;20054;-84
2023/10/27 02:08:47;;;;;;;50.25;24.58;;;;;;;;;;6204491;28;20061;-85
2023/10/27 02:11:48;;;;;;;52.30;24.30;;;;;;;;;;6202642;28;20057;-84
2023/10/27 02:14:50;;;;;;;43.97;23.48;;;;;;;;;;6209166;28;20066;-81
2023/10/27 02:17:52;;;;;;;42.33;21.98;;;;;;;;;;6204925;28;20050;-83
2023/10/27 02:20:53;;;;;;;49.53;23.50;;;;;;;;;;6205185;28;20085;-86
2023/10/27 02:23:56;;;;;;;45.10;22.48;;;;;;;;;;6210082;28;20346;-86
2023/10/27 02:26:58;;;;;;;47.43;22.53;;;;;;;;;;6204643;28;20251;-85
2023/10/27 02:30:00;;;;;;;49.17;23.25;;;;;;;;;;6203623;28;20152;-84
2023/10/27 02:33:02;;;;;;;50.45;24.52;;;;;;;;;;6206053;28;20050;-84
2023/10/27 02:36:04;;;;;;;46.42;24.75;;;;;;;;;;6208342;28;20054;-83
2023/10/27 02:39:07;;;;;;;49.13;23.92;;;;;;;;;;6208188;28;20046;-82
2023/10/27 02:42:09;;;;;;;45.93;24.80;;;;;;;;;;6206119;28;20054;-85
2023/10/27 02:45:11;;;;;;;48.78;24.75;;;;;;;;;;6208836;28;20449;-84
2023/10/27 02:48:13;;;;;;;46.65;22.98;;;;;;;;;;6208528;28;20052;-86
2023/10/27 02:51:16;;;;;;;42.67;22.70;;;;;;;;;;6206261;28;20057;-85
2023/10/27 02:54:19;;;;;;;37.80;21.53;;;;;;;;;;6207379;28;20050;-86
2023/10/27 02:57:21;;;;;;;34.23;20.80;;;;;;;;;;6209132;28;20847;-86
2023/10/27 03:00:22;;;;;;;36.97;20.27;;;;;;;;;;6207859;28;20050;-86
2023/10/27 03:03:27;;;;;;;36.97;20.58;;;;;;;;;;6209921;28;20050;-85
2023/10/27 03:06:29;;;;;;;36.25;21.42;;;;;;;;;;6203488;28;20059;-84
2023/10/27 03:09:32;;;;;;;38.90;21.95;;;;;;;;;;6204291;28;20235;-85
2023/10/27 03:12:34;;;;;;;39.63;23.10;;;;;;;;;;6209077;28;20134;-83
2023/10/27 03:15:36;;;;;;;33.03;20.60;;;;;;;;;;6207409;28;20058;-86
2023/10/27 03:18:37;;;;;;;35.72;21.35;;;;;;;;;;6204256;28;20039;-84
2023/10/27 03:21:39;;;;;;;34.90;21.27;;;;;;;;;;6206731;28;20265;-84
2023/10/27 03:24:42;;;;;;;34.22;20.95;;;;;;;;;;6211522;28;20346;-84
2023/10/27 03:27:44;;;;;;;35.50;21.63;;;;;;;;;;6204371;28;20057;-83
2023/10/27 03:30:48;;;;;;;31.17;20.52;;;;;;;;;;6208121;28;20285;-82
2023/10/27 03:33:49;;;;;;;32.90;18.88;;;;;;;;;;6209581;28;20054;-84
2023/10/27 03:36:51;;;;;;;31.45;20.00;;;;;;;;;;6210020;28;20051;-83
2023/10/27 03:39:54;;;;;;;34.25;19.33;;;;;;;;;;6203935;28;20342;-82
2023/10/27 03:42:56;;;;;;;32.47;19.20;;;;;;;;;;6206695;28;20117;-84
2023/10/27 03:45:58;;;;;;;28.95;18.40;;;;;;;;;;6205237;28;20066;-82
2023/10/27 03:48:59;;;;;;;30.85;18.35;;;;;;;;;;6205556;28;20058;-84
2023/10/27 03:52:01;;;;;;;30.05;17.67;;;;;;;;;;6204495;28;20066;-84
2023/10/27 03:55:04;;;;;;;30.67;17.85;;;;;;;;;;6200260;28;20093;-84
2023/10/27 03:58:15;;;;;;;30.67;18.70;;;;;;;;;;6213597;28;20057;-83
2023/10/27 04:01:17;;;;;;;29.90;19.95;;;;;;;;;;6201675;28;20057;-85
2023/10/27 04:04:19;;;;;;;41.30;22.38;;;;;;;;;;6204780;28;20077;-84
2023/10/27 04:07:21;;;;;;;36.05;22.48;;;;;;;;;;6207210;28;20054;-84
2023/10/27 04:10:24;;;;;;;39.53;23.45;;;;;;;;;;6207296;28;20042;-84
2023/10/27 04:13:26;;;;;;;39.77;21.83;;;;;;;;;;6209875;28;20061;-85
2023/10/27 04:16:29;;;;;;;40.00;22.00;;;;;;;;;;6209057;28;20050;-85
2023/10/27 04:19:31;;;;;;;35.72;20.98;;;;;;;;;;6207297;28;20089;-85
2023/10/27 04:22:33;;;;;;;37.90;20.77;;;;;;;;;;6206371;28;20068;-84
2023/10/27 04:25:38;;;;;;;33.28;20.25;;;;;;;;;;6205244;28;20118;-84
2023/10/27 04:28:40;;;;;;;33.28;20.08;;;;;;;;;;6206605;28;20046;-84
2023/10/27 04:31:43;;;;;;;31.33;18.45;;;;;;;;;;6206771;28;20111;-84
2023/10/27 04:34:44;;;;;;;32.63;19.08;;;;;;;;;;6208110;28;20061;-83
2023/10/27 04:37:46;;;;;;;28.00;17.73;;;;;;;;;;6211687;28;20066;-84
2023/10/27 04:40:51;;;;;;;30.70;18.10;;;;;;;;;;6204029;28;20043;-85
2023/10/27 04:43:53;;;;;;;29.42;18.10;;;;;;;;;;6202454;28;20058;-86
2023/10/27 04:46:55;;;;;;;30.25;18.52;;;;;;;;;;6205775;28;20050;-85
2023/10/27 04:49:56;;;;;;;28.33;17.65;;;;;;;;;;6205359;28;20058;-84
2023/10/27 04:52:58;;;;;;;30.55;17.77;;;;;;;;;;6209379;28;20060;-84
2023/10/27 04:56:01;;;;;;;31.70;19.10;;;;;;;;;;6208574;28;20058;-85
2023/10/27 04:59:03;;;;;;;33.00;20.40;;;;;;;;;;6209020;28;20054;-87
2023/10/27 05:02:05;;;;;;;35.45;20.52;;;;;;;;;;6205050;28;20065;-86
2023/10/27 05:05:08;;;;;;;31.48;17.90;;;;;;;;;;6202917;28;20054;-87
2023/10/27 05:08:10;;;;;;;22.00;15.07;;;;;;;;;;6209973;28;20050;-84
2023/10/27 05:11:13;;;;;;;21.17;14.18;;;;;;;;;;6205059;28;20062;-87
2023/10/27 05:14:14;;;;;;;18.90;12.27;;;;;;;;;;6207487;28;20338;-86
2023/10/27 05:17:17;;;;;;;19.92;13.20;;;;;;;;;;6202775;28;20057;-86
2023/10/27 05:20:19;;;;;;;15.55;11.32;;;;;;;;;;6202322;28;20062;-87
2023/10/27 05:23:21;;;;;;;18.35;11.18;;;;;;;;;;6204647;28;20275;-88
2023/10/27 05:26:24;;;;;;;14.38;10.20;;;;;;;;;;6206824;28;20050;-86
2023/10/27 05:29:27;;;;;;;17.35;10.93;;;;;;;;;;6197973;28;20100;-78
2023/10/27 05:32:32;;;;;;;15.45;10.68;;;;;;;;;;6204327;28;20058;-95
2023/10/27 05:35:34;;;;;;;13.88;9.82;;;;;;;;;;6212878;28;20050;-96
2023/10/27 05:38:36;;;;;;;13.13;9.38;;;;;;;;;;6207911;28;20065;-96
2023/10/27 05:41:39;;;;;;;15.27;10.48;;;;;;;;;;6211196;28;20050;-96
2023/10/27 05:44:42;;;;;;;13.68;10.30;;;;;;;;;;6209970;28;20046;-96
2023/10/27 05:47:43;;;;;;;15.20;10.48;;;;;;;;;;6210314;28;20073;-95
2023/10/27 05:50:46;;;;;;;16.40;9.80;;;;;;;;;;6205909;28;20337;-96
2023/10/27 05:53:48;;;;;;;18.08;9.77;;;;;;;;;;6213575;28;20050;-96
2023/10/27 05:56:52;;;;;;;16.20;10.45;;;;;;;;;;6206409;28;20138;-96
2023/10/27 05:59:54;;;;;;;;;;;;;;;;;;6210154;28;20273;-96
2023/10/27 06:02:56;;;;;;;14.45;11.02;;;;;;;;;;6211697;28;19928;-96
2023/10/27 06:05:58;;;;;;;15.52;11.05;;;;;;;;;;6209522;28;20349;-96
2023/10/27 06:09:00;;;;;;;15.88;11.55;;;;;;;;;;6209814;28;20053;-94
2023/10/27 06:12:08;;;;;;;18.58;10.30;;;;;;;;;;6209235;28;20058;-96
2023/10/27 06:15:10;;;;;;;13.32;10.32;;;;;;;;;;6205785;28;20069;-96
2023/10/27 06:18:12;;;;;;;16.58;9.90;;;;;;;;;;6208917;28;20377;-96
2023/10/27 06:21:14;;;;;;;14.23;9.10;;;;;;;;;;6209945;28;20153;-96
2023/10/27 06:24:16;;;;;;;13.32;9.35;;;;;;;;;;6212633;28;20058;-96
2023/10/27 06:27:20;;;;;;;11.55;9.23;;;;;;;;;;6213414;28;20184;-96
2023/10/27 06:30:23;;;;;;;12.70;9.07;;;;;;;;;;6214755;28;20054;-95
2023/10/27 06:33:24;;;;;;;15.98;10.02;;;;;;;;;;6218919;28;20437;-96
2023/10/27 06:36:28;;;;;;;17.48;10.90;;;;;;;;;;6214276;28;20057;-96
2023/10/27 06:39:29;;;;;;;15.48;11.18;;;;;;;;;;6213414;28;20274;-96
2023/10/27 06:42:33;;;;;;;15.18;10.65;;;;;;;;;;6213159;28;20058;-96
2023/10/27 06:45:35;;;;;;;15.23;11.13;;;;;;;;;;6213519;28;20073;-96
2023/10/27 06:48:37;;;;;;;14.05;10.23;;;;;;;;;;6215969;28;20060;-96
2023/10/27 06:51:39;;;;;;;13.88;10.13;;;;;;;;;;6210479;28;20050;-96
2023/10/27 06:54:41;;;;;;;15.35;9.60;;;;;;;;;;6207515;28;20081;-96
2023/10/27 06:57:44;;;;;;;13.13;9.80;;;;;;;;;;6209214;28;20073;-95
2023/10/27 07:00:47;;;;;;;11.85;9.18;;;;;;;;;;6207646;28;20058;-95
2023/10/27 07:03:50;;;;;;;17.33;10.63;;;;;;;;;;6214072;28;20057;-96
2023/10/27 07:06:52;;;;;;;15.37;10.80;;;;;;;;;;6210322;28;20081;-96
2023/10/27 07:09:54;;;;;;;13.85;9.77;;;;;;;;;;6204178;28;20053;-95
2023/10/27 07:12:57;;;;;;;14.15;10.10;;;;;;;;;;6209260;28;20258;-96
2023/10/27 07:15:59;;;;;;;13.15;9.25;;;;;;;;;;6206330;28;20058;-96
2023/10/27 07:19:01;;;;;;;13.50;9.80;;;;;;;;;;6209845;28;20060;-96
2023/10/27 07:22:04;;;;;;;13.07;9.50;;;;;;;;;;6208281;28;20053;-96
2023/10/27 07:25:06;;;;;;;13.57;9.10;;;;;;;;;;6208808;28;20038;-96
2023/10/27 07:28:10;;;;;;;12.70;8.20;;;;;;;;;;6209364;28;20050;-96
2023/10/27 07:31:13;;;;;;;13.85;9.40;;;;;;;;;;6211744;28;20313;-96
2023/10/27 07:34:16;;;;;;;12.35;9.00;;;;;;;;;;6206927;28;20223;-96
2023/10/27 07:37:19;;;;;;;12.70;9.13;;;;;;;;;;6210868;28;20060;-96
2023/10/27 07:40:21;;;;;;;17.25;9.63;;;;;;;;;;6209547;28;20062;-96
2023/10/27 07:43:25;;;;;;;14.52;10.32;;;;;;;;;;6213279;28;20046;-96
2023/10/27 07:46:27;;;;;;;13.82;10.88;;;;;;;;;;6210840;28;20342;-95
2023/10/27 07:49:28;;;;;;;18.42;11.75;;;;;;;;;;6209525;28;20353;-96
2023/10/27 07:52:30;;;;;;;21.77;13.77;;;;;;;;;;6213254;28;20061;-95
2023/10/27 07:55:32;;;;;;;29.80;18.02;;;;;;;;;;6212342;28;20129;-96
2023/10/27 07:58:36;;;;;;;34.40;19.65;;;;;;;;;;6191042;28;20065;-96
2023/10/27 08:01:38;;;;;;;37.97;19.45;;;;;;;;;;6211821;28;20054;-95
2023/10/27 08:04:40;;;;;;;36.47;20.65;;;;;;;;;;6209197;28;20061;-96
2023/10/27 08:07:42;;;;;;;30.92;19.48;;;;;;;;;;6206295;28;20046;-95
2023/10/27 08:10:46;;;;;;;33.95;19.80;;;;;;;;;;6209002;28;20046;-96
2023/10/27 08:13:50;;;;;;;33.13;19.35;;;;;;;;;;6204283;28;20042;-95
2023/10/27 08:16:53;;;;;;;38.30;20.13;;;;;;;;;;6203637;28;20317;-96
2023/10/27 08:19:55;;;;;;;34.28;21.17;;;;;;;;;;6210448;28;20057;-96
2023/10/27 08:22:56;;;;;;;36.60;20.48;;;;;;;;;;6206414;28;20054;-96
2023/10/27 08:25:58;;;;;;;38.58;19.98;;;;;;;;;;6204653;28;20050;-96
2023/10/27 08:29:02;;;;;;;31.20;18.23;;;;;;;;;;6207117;28;20049;-94
2023/10/27 08:32:05;;;;;;;30.60;19.45;;;;;;;;;;6207392;28;20056;-96
2023/10/27 08:35:08;;;;;;;29.88;18.50;;;;;;;;;;6204043;28;20062;-95
2023/10/27 08:38:10;;;;;;;28.85;17.95;;;;;;;;;;6207663;28;20053;-95
2023/10/27 08:41:13;;;;;;;30.48;17.92;;;;;;;;;;6199992;28;20053;-94
2023/10/27 08:44:27;;;;;;;28.90;16.67;;;;;;;;;;6206617;28;20057;-95
2023/10/27 08:47:31;;;;;;;26.65;17.83;;;;;;;;;;6206228;28;20108;-95
2023/10/27 08:50:35;;;;;;;32.88;18.58;;;;;;;;;;6224883;28;20046;-95
2023/10/27 08:53:40;;;;;;;30.85;20.08;;;;;;;;;;6206850;28;20329;-94
2023/10/27 08:56:42;;;;;;;32.60;21.92;;;;;;;;;;6289598;22;20086;-93
2023/10/27 09:02:57;;;;;;;32.80;21.75;;;;;;;;;;6291491;28;20056;-94
2023/10/27 09:05:59;;;;;;;36.05;21.42;;;;;;;;;;6300686;28;20094;-94
2023/10/27 09:09:00;;;;;;;32.33;20.80;;;;;;;;;;6293300;28;20057;-93
2023/10/27 09:12:02;;;;;;;27.90;19.85;;;;;;;;;;6297634;28;20060;-92
2023/10/27 09:15:05;;;;;;;27.63;18.23;;;;;;;;;;6293887;28;20052;-93
2023/10/27 09:18:09;;;;;;;23.80;17.13;;;;;;;;;;6297872;28;20280;-93
2023/10/27 09:21:11;;;;;;;26.90;18.27;;;;;;;;;;6293588;28;20106;-94
2023/10/27 09:24:21;;;;;;;24.40;17.17;;;;;;;;;;6299259;28;20325;-93
2023/10/27 09:27:26;;;;;;;22.08;15.88;;;;;;;;;;6294047;28;20049;-95
2023/10/27 09:30:29;;;;;;;22.08;15.63;;;;;;;;;;6295548;28;20053;-94
2023/10/27 09:33:32;;;;;;;22.15;15.90;;;;;;;;;;6297293;28;20063;-93
2023/10/27 09:36:34;;;;;;;17.95;13.57;;;;;;;;;;6297590;28;20056;-92
2023/10/27 09:39:38;;;;;;;18.45;11.82;;;;;;;;;;6298131;28;20071;-93
2023/10/27 09:42:41;;;;;;;16.55;12.52;;;;;;;;;;6295820;28;20057;-95
2023/10/27 09:45:52;;;;;;;17.25;10.90;;;;;;;;;;6295700;28;20056;-96
2023/10/27 09:48:58;;;;;;;13.57;9.25;;;;;;;;;;6277770;28;20056;-96
2023/10/27 09:52:01;;;;;;;9.13;7.43;;;;;;;;;;6297107;28;20084;-95
2023/10/27 09:55:03;;;;;;;8.60;7.03;;;;;;;;;;6299793;28;20229;-91
2023/10/27 09:58:05;;;;;;;8.95;6.40;;;;;;;;;;6296178;28;20057;-94
2023/10/27 10:01:07;;;;;;;9.68;6.40;;;;;;;;;;6316696;28;20064;-96
2023/10/27 10:04:10;;;;;;;8.75;6.15;;;;;;;;;;6319344;28;20213;-95
2023/10/27 10:07:12;;;;;;;10.80;5.45;;;;;;;;;;6319090;28;20078;-95
2023/10/27 10:10:21;;;;;;;6.28;5.50;;;;;;;;;;6317571;28;20045;-96
2023/10/27 10:13:36;;;;;;;7.35;5.53;;;;;;;;;;6318909;28;20063;-96
2023/10/27 10:16:45;;;;;;;6.22;5.30;;;;;;;;;;6319986;28;20329;-91
2023/10/27 10:19:49;;;;;;;8.63;5.38;;;;;;;;;;6316538;28;20048;-92
2023/10/27 10:22:54;;;;;;;7.22;5.45;;;;;;;;;;6318702;28;20056;-94
2023/10/27 10:25:56;;;;;;;7.78;5.35;;;;;;;;;;6316878;28;20248;-93
2023/10/27 10:29:32;;;;;;;7.73;5.70;;;;;;;;;;6318702;28;20071;-95
2023/10/27 10:32:36;;;;;;;6.00;4.90;;;;;;;;;;6320519;28;20052;-94
2023/10/27 10:35:39;;;;;;;6.05;5.10;;;;;;;;;;6323772;28;20219;-93
2023/10/27 10:38:43;;;;;;;;;;;;;;;;;;6325987;28;20370;-91
2023/10/27 10:42:01;;;;;;;5.63;4.70;;;;;;;;;;6325570;28;19924;-94
2023/10/27 10:45:03;;;;;;;8.65;5.18;;;;;;;;;;6322785;28;20120;-94
2023/10/27 10:48:05;;;;;;;6.90;5.03;;;;;;;;;;6323323;28;20067;-94
2023/10/27 10:51:14;;;;;;;11.17;6.30;;;;;;;;;;6323050;28;20119;-93
2023/10/27 10:54:17;;;;;;;9.18;6.32;;;;;;;;;;6323324;28;20063;-94
2023/10/27 10:57:20;;;;;;;8.32;5.53;;;;;;;;;;6327177;28;20054;-91
2023/10/27 11:00:22;;;;;;;8.10;5.47;;;;;;;;;;6327618;28;20059;-94
2023/10/27 11:03:25;;;;;;;6.07;4.85;;;;;;;;;;6321786;28;20075;-93
2023/10/27 11:06:29;;;;;;;7.55;5.18;;;;;;;;;;6320896;28;20047;-93
2023/10/27 11:09:32;;;;;;;5.43;4.88;;;;;;;;;;6320459;28;20040;-93
2023/10/27 11:12:34;;;;;;;6.13;4.80;;;;;;;;;;6322332;28;20055;-95
2023/10/27 11:15:44;;;;;;;6.20;4.90;;;;;;;;;;6307301;28;20056;-94
2023/10/27 11:18:46;;;;;;;8.13;5.75;;;;;;;;;;6322050;28;20348;-95
2023/10/27 11:21:54;;;;;;;6.93;5.57;;;;;;;;;;6326545;28;20052;-92
2023/10/27 11:24:56;;;;;;;7.20;5.35;;;;;;;;;;6305050;28;20048;-93
2023/10/27 11:28:18;;;;;;;8.35;5.20;;;;;;;;;;6324889;28;20089;-93
2023/10/27 11:31:26;;;;;;;6.55;4.43;;;;;;;;;;6309223;28;20223;-91
2023/10/27 11:34:32;;;;;;;5.90;4.93;;;;;;;;;;6310513;28;20056;-93
2023/10/27 11:37:35;;;;;;;5.93;4.53;;;;;;;;;;6323247;28;20056;-94
2023/10/27 11:40:37;;;;;;;;;;;;;;;;;;6324942;28;20052;-93
2023/10/27 11:43:38;;;;;;;5.20;4.38;;;;;;;;;;6320604;28;20077;-93
2023/10/27 11:46:46;;;;;;;5.60;4.85;;;;;;;;;;6322835;28;20267;-94
2023/10/27 11:49:48;;;;;;;6.65;4.40;;;;;;;;;;6314590;28;20052;-92
2023/10/27 11:52:52;;;;;;;5.47;4.25;;;;;;;;;;6324750;28;20103;-95
2023/10/27 11:55:54;;;;;;;6.47;4.20;;;;;;;;;;6319392;28;20109;-95
2023/10/27 11:58:56;;;;;;;7.00;4.55;;;;;;;;;;6318604;28;20047;-92
2023/10/27 12:01:58;;;;;;;4.88;4.07;;;;;;;;;;6322166;28;20047;-93
2023/10/27 12:05:00;;;;;;;5.30;3.92;;;;;;;;;;6324446;28;20055;-96
2023/10/27 12:08:03;;;;;;;4.82;3.92;;;;;;;;;;6323579;28;20243;-95
2023/10/27 12:11:05;;;;;;;;;;;;;;;;;;6319773;28;20080;-96
2023/10/27 12:14:07;;;;;;;6.43;4.07;;;;;;;;;;6321649;28;19915;-93
2023/10/27 12:17:09;;;;;;;5.50;4.05;;;;;;;;;;6318046;28;20128;-96
2023/10/27 12:20:12;;;;;;;7.05;4.68;;;;;;;;;;6323059;28;20052;-94
2023/10/27 12:23:15;;;;;;;;;;;;;;;;;;6323101;28;20086;-95
2023/10/27 12:26:18;;;;;;;6.00;4.63;;;;;;;;;;6319996;28;19916;-93
2023/10/27 12:29:22;;;;;;;6.15;4.45;;;;;;;;;;6321166;28;20325;-95
2023/10/27 12:32:24;;;;;;;6.30;4.68;;;;;;;;;;6322219;28;20052;-95
2023/10/27 12:35:26;;;;;;;5.10;4.00;;;;;;;;;;6320412;28;20320;-95
2023/10/27 12:38:30;;;;;;;5.85;4.35;;;;;;;;;;6320881;28;20044;-95
2023/10/27 12:41:32;;;;;;;5.47;4.45;;;;;;;;;;6321809;28;20107;-94
2023/10/27 12:44:35;;;;;;;;;;;;;;;;;;6326269;28;20052;-96
2023/10/27 12:47:36;;;;;;;12.70;9.80;;;;;;;;;;6319893;28;20212;-94
2023/10/27 12:50:39;;;;;;;9.82;6.07;;;;;;;;;;6325865;28;20071;-95
2023/10/27 12:53:43;;;;;;;14.50;9.87;;;;;;;;;;6323645;28;20047;-94
2023/10/27 12:56:45;;;;;;;14.43;9.60;;;;;;;;;;6318207;28;20270;-95
2023/10/27 12:59:47;;;;;;;16.75;10.65;;;;;;;;;;6322541;28;20059;-96
2023/10/27 13:02:49;;;;;;;8.52;5.10;;;;;;;;;;6319906;28;20055;-95
2023/10/27 13:05:51;;;;;;;7.75;4.15;;;;;;;;;;6306760;28;20083;-96
2023/10/27 13:12:12;;;;;;;5.90;4.20;;;;;;;;;;6298375;28;20127;-96
2023/10/27 13:15:14;;;;;;;7.15;4.03;;;;;;;;;;6334539;27;20051;-96
2023/10/27 13:18:17;;;;;;;4.15;3.63;;;;;;;;;;6348022;28;20047;-93
2023/10/27 13:21:19;;;;;;;3.55;2.80;;;;;;;;;;6342914;27;20115;-94
2023/10/27 13:27:39;;;;;;;4.63;3.10;;;;;;;;;;6283708;28;20051;-96
2023/10/27 13:30:42;;;;;;;4.10;2.67;;;;;;;;;;6342508;28;20052;-94
2023/10/27 13:33:45;;;;;;;3.53;2.65;;;;;;;;;;6315115;27;20043;-95
2023/10/27 13:36:47;;;;;;;4.88;2.63;;;;;;;;;;6346188;27;20089;-96
2023/10/27 13:43:10;;;;;;;4.40;3.20;;;;;;;;;;6312043;28;20081;-94
2023/10/27 13:46:16;;;;;;;3.85;2.58;;;;;;;;;;6342167;28;20101;-96
2023/10/27 13:49:19;;;;;;;6.13;2.53;;;;;;;;;;6342443;28;20067;-94
2023/10/27 13:52:22;;;;;;;3.83;2.97;;;;;;;;;;6348512;28;20071;-95
2023/10/27 13:55:28;;;;;;;8.47;3.37;;;;;;;;;;6326815;28;20059;-96
2023/10/27 13:58:32;;;;;;;3.80;3.00;;;;;;;;;;6324802;28;20690;-95
2023/10/27 14:01:34;;;;;;;3.35;2.38;;;;;;;;;;6298464;28;20043;-95
2023/10/27 14:04:47;;;;;;;8.05;2.47;;;;;;;;;;6321504;28;20119;-96
2023/10/27 14:08:09;;;;;;;16.98;11.57;;;;;;;;;;6318050;28;20052;-96
2023/10/27 14:11:14;;;;;;;;;;;;;;;;;;6320779;28;20056;-96
2023/10/27 14:14:35;;;;;;;;;;;;;;;;;;6312460;28;20018;-96
2023/10/27 14:17:37;;;;;;;4.35;2.25;;;;;;;;;;6323444;28;19938;-96
2023/10/27 14:20:39;;;;;;;4.32;2.00;;;;;;;;;;6322110;28;20404;-92
2023/10/27 14:23:41;;;;;;;2.45;1.50;;;;;;;;;;6317268;28;20048;-93
2023/10/27 14:26:46;;;;;;;3.33;2.20;;;;;;;;;;6325274;28;20076;-94
2023/10/27 14:29:48;;;;;;;3.35;1.92;;;;;;;;;;6326784;28;20047;-96
2023/10/27 14:32:50;;;;;;;2.25;1.70;;;;;;;;;;6322870;28;20051;-96
2023/10/27 14:35:52;;;;;;;5.37;1.70;;;;;;;;;;6324731;28;20296;-96
2023/10/27 14:38:54;;;;;;;4.43;2.00;;;;;;;;;;6321280;28;20052;-96
2023/10/27 14:45:16;;;;;;;9.50;1.40;;;;;;;;;;6296951;28;20047;-96
2023/10/27 14:48:18;;;;;;;2.53;1.35;;;;;;;;;;6325195;28;20048;-96
2023/10/27 14:51:22;;;;;;;3.03;1.10;;;;;;;;;;6326247;28;20063;-96
2023/10/27 14:54:24;;;;;;;2.22;1.38;;;;;;;;;;6299708;28;20055;-96
2023/10/27 15:01:08;;;;;;;3.65;1.50;;;;;;;;;;6289190;28;20123;-96
2023/10/27 15:04:10;;;;;;;2.88;1.10;;;;;;;;;;6310888;28;20059;-95
2023/10/27 15:07:16;;;;;;;2.97;1.20;;;;;;;;;;6327028;28;20055;-96
2023/10/27 15:10:20;;;;;;;1.67;1.00;;;;;;;;;;6327689;28;20075;-96
2023/10/27 15:13:34;;;;;;;2.47;1.50;;;;;;;;;;6321922;28;20076;-95
2023/10/27 15:16:56;;;;;;;1.85;1.20;;;;;;;;;;6326555;28;20052;-95
2023/10/27 15:20:01;;;;;;;2.25;1.33;;;;;;;;;;6322477;28;20060;-95
2023/10/27 15:23:03;;;;;;;3.58;1.30;;;;;;;;;;6314376;28;20047;-94
2023/10/27 15:26:06;;;;;;;4.78;1.40;;;;;;;;;;6326483;28;20089;-96
2023/10/27 15:32:28;;;;;;;1.90;1.23;;;;;;;;;;6301283;28;20060;-95
2023/10/27 15:35:30;;;;;;;;;;;;;;;;;;6322491;28;20056;-96
2023/10/27 15:38:35;;;;;;;83.30;55.60;;;;;;;;;;6333786;22;19939;-90
2023/10/27 15:41:39;;;;;;;40.67;25.23;;;;;;;;;;6305203;28;20053;-90
2023/10/27 15:44:42;;;;;;;14.90;8.95;;;;;;;;;;6315630;28;20109;-90
2023/10/27 15:47:47;;;;;;;8.48;4.85;;;;;;;;;;6310950;28;20052;-91
2023/10/27 15:50:52;;;;;;;8.50;5.47;;;;;;;;;;6314487;28;20104;-90
2023/10/27 15:53:56;;;;;;;11.27;7.68;;;;;;;;;;6310017;28;20086;-92
2023/10/27 15:56:58;;;;;;;2.30;1.65;;;;;;;;;;6281502;28;20098;-92
2023/10/27 16:00:01;;;;;;;2.80;1.40;;;;;;;;;;6275771;28;20065;-92
2023/10/27 16:03:05;;;;;;;2.00;1.20;;;;;;;;;;6271347;28;20049;-89
2023/10/27 16:06:07;;;;;;;2.47;1.23;;;;;;;;;;6275484;28;20048;-91
2023/10/27 16:09:09;;;;;;;3.20;1.70;;;;;;;;;;6280926;28;20070;-89
2023/10/27 16:12:11;;;;;;;3.33;1.55;;;;;;;;;;6266776;28;20072;-91
2023/10/27 16:15:15;;;;;;;2.53;1.27;;;;;;;;;;6278969;28;20068;-91
2023/10/27 16:18:18;;;;;;;;;;;;;;;;;;6270807;28;20065;-90
2023/10/27 16:21:20;;;;;;;4.25;1.73;;;;;;;;;;6263470;28;20192;-89
2023/10/27 16:24:22;;;;;;;5.20;1.80;;;;;;;;;;6272086;28;20120;-90
2023/10/27 16:27:24;;;;;;;2.78;1.63;;;;;;;;;;6275848;28;20072;-91
2023/10/27 16:30:33;;;;;;;5.53;2.33;;;;;;;;;;6275685;28;20648;-91
2023/10/27 16:33:35;;;;;;;7.85;3.03;;;;;;;;;;6273004;28;20108;-91
2023/10/27 16:36:37;;;;;;;6.97;2.50;;;;;;;;;;6279523;28;20049;-91
2023/10/27 16:39:38;;;;;;;5.40;2.50;;;;;;;;;;6277816;28;20055;-89
2023/10/27 16:42:40;;;;;;;4.07;2.50;;;;;;;;;;6273436;28;20248;-91
2023/10/27 16:45:43;;;;;;;9.63;2.67;;;;;;;;;;6274891;28;20049;-91
2023/10/27 16:48:45;;;;;;;4.50;2.47;;;;;;;;;;6275252;28;20094;-90
2023/10/27 16:51:47;;;;;;;9.32;3.47;;;;;;;;;;6272964;28;20057;-91
2023/10/27 16:54:50;;;;;;;9.82;3.78;;;;;;;;;;6270017;28;20050;-91
2023/10/27 16:57:51;;;;;;;6.15;3.25;;;;;;;;;;6273634;28;20061;-90
2023/10/27 17:01:01;;;;;;;5.57;2.83;;;;;;;;;;6270909;28;20060;-91
2023/10/27 17:04:03;;;;;;;5.03;3.17;;;;;;;;;;6274524;28;20071;-89
2023/10/27 17:07:05;;;;;;;5.93;3.47;;;;;;;;;;6273906;28;20251;-90
2023/10/27 17:10:07;;;;;;;7.53;3.58;;;;;;;;;;6278141;28;20048;-89
2023/10/27 17:13:09;;;;;;;8.33;3.60;;;;;;;;;;6274794;28;20108;-91
2023/10/27 17:16:12;;;;;;;7.85;3.58;;;;;;;;;;6277263;28;20255;-89
2023/10/27 17:19:14;;;;;;;11.52;4.13;;;;;;;;;;6275565;28;20102;-91
2023/10/27 17:22:15;;;;;;;6.95;3.63;;;;;;;;;;6277859;28;20068;-92
2023/10/27 17:25:18;;;;;;;8.95;3.80;;;;;;;;;;6275233;28;20052;-91
2023/10/27 17:28:20;;;;;;;7.32;3.92;;;;;;;;;;6274161;28;20117;-90
2023/10/27 17:31:25;;;;;;;9.77;4.80;;;;;;;;;;6274961;28;20053;-92
2023/10/27 17:34:27;;;;;;;9.73;4.90;;;;;;;;;;6280485;28;20049;-92
2023/10/27 17:37:28;;;;;;;11.10;4.40;;;;;;;;;;6275157;28;20045;-91
2023/10/27 17:40:30;;;;;;;8.40;4.88;;;;;;;;;;6276612;28;20057;-92
2023/10/27 17:43:35;;;;;;;8.60;4.70;;;;;;;;;;6283718;28;20056;-96
2023/10/27 17:46:39;;;;;;;11.98;5.40;;;;;;;;;;6283102;28;20041;-92
2023/10/27 17:49:40;;;;;;;6.55;4.72;;;;;;;;;;6281737;28;20141;-91
2023/10/27 17:52:42;;;;;;;13.95;4.93;;;;;;;;;;6281667;28;20064;-94
2023/10/27 17:55:49;;;;;;;13.70;6.05;;;;;;;;;;6283779;28;20048;-96
2023/10/27 17:58:51;;;;;;;8.30;5.30;;;;;;;;;;6287397;28;20045;-93
2023/10/27 18:01:54;;;;;;;11.45;5.50;;;;;;;;;;6282232;28;20339;-93
2023/10/27 18:04:56;;;;;;;13.10;5.35;;;;;;;;;;6279337;28;20052;-94
2023/10/27 18:07:57;;;;;;;8.80;5.80;;;;;;;;;;6282018;28;20221;-92
2023/10/27 18:10:59;;;;;;;16.88;6.18;;;;;;;;;;6281718;28;20060;-93
2023/10/27 18:14:01;;;;;;;10.45;5.47;;;;;;;;;;6285415;28;20061;-95
2023/10/27 18:17:04;;;;;;;12.35;5.65;;;;;;;;;;6281101;28;20052;-92
2023/10/27 18:20:07;;;;;;;12.18;6.93;;;;;;;;;;6278975;28;20079;-94
2023/10/27 18:23:10;;;;;;;14.93;6.93;;;;;;;;;;6283532;28;20041;-90
2023/10/27 18:26:13;;;;;;;16.20;7.95;;;;;;;;;;6283195;28;20044;-94